Time,TemperatureF,DewpointF,PressureIn,WindDirection,WindDirectionDegrees,WindSpeedMPH,WindSpeedGustMPH,Humidity,HourlyPrecipIn,Conditions,Clouds,dailyrainin,SoftwareType,DateUTC
2013-08-11 00:14:00,56.5,50.1,29.99,SW,225,2.7,-999.0,79,-99.99,,,0.00,Acu-Link.com,2013-08-11 04:14:00,
2013-08-11 00:29:00,56.1,50.0,29.99,SW,225,3.7,-999.0,80,-99.99,,,0.00,Acu-Link.com,2013-08-11 04:29:00,
2013-08-11 00:44:00,55.4,50.0,29.98,WSW,247,2.7,-999.0,82,-99.99,,,0.00,Acu-Link.com,2013-08-11 04:44:00,
2013-08-11 00:59:00,55.0,49.6,29.99,SSW,202,4.2,-999.0,82,-99.99,,,0.00,Acu-Link.com,2013-08-11 04:59:00,
2013-08-11 01:15:00,55.4,50.0,29.99,WSW,247,2.7,-999.0,82,-99.99,,,0.00,Acu-Link.com,2013-08-11 05:15:00,
2013-08-11 01:30:00,55.0,49.6,29.99,SSW,202,2.2,-999.0,82,-99.99,,,0.00,Acu-Link.com,2013-08-11 05:30:00,
2013-08-11 01:45:00,54.7,49.6,29.99,SSW,202,4.2,-999.0,83,-99.99,,,0.00,Acu-Link.com,2013-08-11 05:45:00,
2013-08-11 02:15:00,55.9,50.2,30.00,WNW,292,4.7,-999.0,81,-99.99,,,0.00,Acu-Link.com,2013-08-11 06:15:00,
2013-08-11 02:31:00,56.3,50.2,30.01,WSW,247,4.7,-999.0,80,-99.99,,,0.00,Acu-Link.com,2013-08-11 06:31:00,
2013-08-11 03:16:00,53.2,48.5,30.02,SW,225,1.7,-999.0,84,-99.99,,,0.00,Acu-Link.com,2013-08-11 07:16:00,
2013-08-11 03:47:00,53.1,48.4,30.01,West,270,1.7,-999.0,84,-99.99,,,0.00,Acu-Link.com,2013-08-11 07:47:00,
2013-08-11 04:02:00,54.7,49.6,30.02,SSW,202,5.8,-999.0,83,-99.99,,,0.00,Acu-Link.com,2013-08-11 08:02:00,
2013-08-11 04:18:00,54.5,49.4,30.02,SW,225,4.7,-999.0,83,-99.99,,,0.00,Acu-Link.com,2013-08-11 08:18:00,
2013-08-11 04:34:00,54.3,49.2,30.02,WSW,247,3.7,-999.0,83,-99.99,,,0.00,Acu-Link.com,2013-08-11 08:34:00,
2013-08-11 04:49:00,54.1,49.1,30.02,SW,225,4.2,-999.0,83,-99.99,,,0.00,Acu-Link.com,2013-08-11 08:49:00,
2013-08-11 05:04:00,53.2,48.5,30.01,SW,225,2.2,-999.0,84,-99.99,,,0.00,Acu-Link.com,2013-08-11 09:04:00,
2013-08-11 05:20:00,52.7,48.0,30.02,SSW,202,3.7,-999.0,84,-99.99,,,0.00,Acu-Link.com,2013-08-11 09:20:00,
2013-08-11 05:35:00,52.2,47.8,30.03,SSE,157,0.0,-999.0,85,-99.99,,,0.00,Acu-Link.com,2013-08-11 09:35:00,
2013-08-11 06:05:00,50.9,47.2,30.03,SSW,202,1.1,-999.0,87,-99.99,,,0.00,Acu-Link.com,2013-08-11 10:05:00,
2013-08-11 06:20:00,51.4,47.7,30.04,WSW,247,3.2,-999.0,87,-99.99,,,0.00,Acu-Link.com,2013-08-11 10:20:00,
2013-08-11 06:35:00,52.5,48.7,30.05,WSW,247,2.7,-999.0,87,-99.99,,,0.00,Acu-Link.com,2013-08-11 10:35:00,
2013-08-11 06:51:00,53.6,49.5,30.05,SW,225,4.7,-999.0,86,-99.99,,,0.00,Acu-Link.com,2013-08-11 10:51:00,
2013-08-11 07:21:00,55.9,51.5,30.04,WSW,247,5.3,-999.0,85,-99.99,,,0.00,Acu-Link.com,2013-08-11 11:21:00,
2013-08-11 07:36:00,58.5,53.4,30.06,South,180,2.7,-999.0,83,-99.99,,,0.00,Acu-Link.com,2013-08-11 11:36:00,
2013-08-11 07:51:00,60.1,53.6,30.06,West,270,3.7,-999.0,79,-99.99,,,0.00,Acu-Link.com,2013-08-11 11:51:00,
2013-08-11 08:06:00,61.5,54.2,30.06,SW,225,6.3,-999.0,77,-99.99,,,0.00,Acu-Link.com,2013-08-11 12:06:00,
2013-08-11 08:21:00,62.8,54.4,30.06,SW,225,4.2,-999.0,74,-99.99,,,0.00,Acu-Link.com,2013-08-11 12:21:00,
2013-08-11 08:36:00,64.0,54.4,30.06,WNW,292,6.8,-999.0,71,-99.99,,,0.00,Acu-Link.com,2013-08-11 12:36:00,
2013-08-11 08:52:00,66.0,55.9,30.06,West,270,7.8,-999.0,70,-99.99,,,0.00,Acu-Link.com,2013-08-11 12:52:00,
2013-08-11 09:07:00,64.9,54.9,30.06,SW,225,7.8,-999.0,70,-99.99,,,0.00,Acu-Link.com,2013-08-11 13:07:00,
2013-08-11 09:22:00,65.3,54.5,30.06,SW,225,5.8,-999.0,68,-99.99,,,0.00,Acu-Link.com,2013-08-11 13:22:00,
2013-08-11 09:37:00,66.6,55.3,30.05,South,180,5.3,-999.0,67,-99.99,,,0.00,Acu-Link.com,2013-08-11 13:37:00,
2013-08-11 09:52:00,66.9,55.2,30.05,WNW,292,3.2,-999.0,66,-99.99,,,0.00,Acu-Link.com,2013-08-11 13:52:00,
2013-08-11 10:08:00,68.0,55.8,30.05,SW,225,6.3,-999.0,65,-99.99,,,0.00,Acu-Link.com,2013-08-11 14:08:00,
2013-08-11 10:23:00,68.7,55.1,30.05,SSW,202,7.8,-999.0,62,-99.99,,,0.00,Acu-Link.com,2013-08-11 14:23:00,
2013-08-11 10:38:00,69.8,55.7,30.05,SW,225,7.3,-999.0,61,-99.99,,,0.00,Acu-Link.com,2013-08-11 14:38:00,
2013-08-11 10:53:00,70.0,55.5,30.04,WSW,247,6.3,-999.0,60,-99.99,,,0.00,Acu-Link.com,2013-08-11 14:53:00,
2013-08-11 11:08:00,70.7,56.1,30.03,WSW,247,5.8,-999.0,60,-99.99,,,0.00,Acu-Link.com,2013-08-11 15:08:00,
2013-08-11 11:24:00,69.4,54.4,30.03,West,270,4.2,-999.0,59,-99.99,,,0.00,Acu-Link.com,2013-08-11 15:24:00,
2013-08-11 11:39:00,71.4,55.4,30.02,West,270,3.7,-999.0,57,-99.99,,,0.00,Acu-Link.com,2013-08-11 15:39:00,
2013-08-11 12:09:00,71.8,56.2,30.02,SSW,202,11.4,-999.0,58,-99.99,,,0.00,Acu-Link.com,2013-08-11 16:09:00,
2013-08-11 12:25:00,71.1,56.0,30.01,WSW,247,5.3,-999.0,59,-99.99,,,0.00,Acu-Link.com,2013-08-11 16:25:00,
2013-08-11 12:40:00,73.4,55.7,30.00,SSW,202,8.3,-999.0,54,-99.99,,,0.00,Acu-Link.com,2013-08-11 16:40:00,
2013-08-11 12:56:00,73.2,55.5,30.00,SW,225,10.4,-999.0,54,-99.99,,,0.00,Acu-Link.com,2013-08-11 16:56:00,
2013-08-11 13:11:00,72.9,55.8,30.00,NW,315,6.8,-999.0,55,-99.99,,,0.00,Acu-Link.com,2013-08-11 17:11:00,
2013-08-11 13:26:00,74.1,54.3,30.00,West,270,6.8,-999.0,50,-99.99,,,0.00,Acu-Link.com,2013-08-11 17:26:00,
2013-08-11 13:42:00,76.1,55.0,30.00,West,270,9.9,-999.0,48,-99.99,,,0.00,Acu-Link.com,2013-08-11 17:42:00,
2013-08-11 13:57:00,75.6,52.1,29.99,SW,225,6.3,-999.0,44,-99.99,,,0.00,Acu-Link.com,2013-08-11 17:57:00,
2013-08-11 14:27:00,76.8,53.8,29.98,SW,225,10.4,-999.0,45,-99.99,,,0.00,Acu-Link.com,2013-08-11 18:27:00,
2013-08-11 14:42:00,77.4,53.8,29.98,SW,225,4.7,-999.0,44,-99.99,,,0.00,Acu-Link.com,2013-08-11 18:42:00,
2013-08-11 14:58:00,75.9,52.4,29.98,WNW,292,4.2,-999.0,44,-99.99,,,0.00,Acu-Link.com,2013-08-11 18:58:00,
2013-08-11 15:28:00,74.8,53.8,29.98,ESE,112,1.1,-999.0,48,-99.99,,,0.00,Acu-Link.com,2013-08-11 19:28:00,
2013-08-11 15:43:00,74.3,55.0,29.98,WSW,247,2.7,-999.0,51,-99.99,,,0.00,Acu-Link.com,2013-08-11 19:43:00,
2013-08-11 15:58:00,75.7,56.3,29.97,NE,45,4.2,-999.0,51,-99.99,,,0.00,Acu-Link.com,2013-08-11 19:58:00,
2013-08-11 16:29:00,73.9,54.6,29.98,WSW,247,2.2,-999.0,51,-99.99,,,0.00,Acu-Link.com,2013-08-11 20:29:00,
2013-08-11 17:15:00,76.6,55.4,29.97,West,270,0.0,-999.0,48,-99.99,,,0.00,Acu-Link.com,2013-08-11 21:15:00,
2013-08-11 17:30:00,76.5,55.9,29.96,WSW,247,2.2,-999.0,49,-99.99,,,0.00,Acu-Link.com,2013-08-11 21:30:00,
2013-08-11 17:45:00,76.1,56.1,29.95,NW,315,0.0,-999.0,50,-99.99,,,0.00,Acu-Link.com,2013-08-11 21:45:00,
2013-08-11 18:00:00,77.0,56.9,29.95,NNE,22,1.7,-999.0,50,-99.99,,,0.00,Acu-Link.com,2013-08-11 22:00:00,
2013-08-11 18:15:00,78.1,56.8,29.95,West,270,1.7,-999.0,48,-99.99,,,0.00,Acu-Link.com,2013-08-11 22:15:00,
2013-08-11 18:31:00,76.8,57.8,29.95,SW,225,1.1,-999.0,52,-99.99,,,0.00,Acu-Link.com,2013-08-11 22:31:00,
2013-08-11 18:46:00,74.7,56.9,29.96,WSW,247,1.1,-999.0,54,-99.99,,,0.00,Acu-Link.com,2013-08-11 22:46:00,
2013-08-11 19:01:00,74.3,57.1,29.96,WSW,247,2.7,-999.0,55,-99.99,,,0.00,Acu-Link.com,2013-08-11 23:01:00,
2013-08-11 19:16:00,71.8,56.2,29.96,SW,225,3.2,-999.0,58,-99.99,,,0.00,Acu-Link.com,2013-08-11 23:16:00,
2013-08-11 20:02:00,66.9,54.7,29.97,South,180,3.2,-999.0,65,-99.99,,,0.00,Acu-Link.com,2013-08-12 00:02:00,
2013-08-11 20:47:00,64.2,55.0,29.98,WSW,247,1.1,-999.0,72,-99.99,,,0.00,Acu-Link.com,2013-08-12 00:47:00,
2013-08-11 21:03:00,63.7,55.3,29.98,South,180,1.7,-999.0,74,-99.99,,,0.00,Acu-Link.com,2013-08-12 01:03:00,
2013-08-11 21:18:00,62.8,55.1,30.00,ESE,112,1.1,-999.0,76,-99.99,,,0.00,Acu-Link.com,2013-08-12 01:18:00,
2013-08-11 21:48:00,62.2,54.9,30.00,SSE,157,0.0,-999.0,77,-99.99,,,0.00,Acu-Link.com,2013-08-12 01:48:00,
2013-08-11 22:03:00,61.9,55.0,30.00,SW,225,2.2,-999.0,78,-99.99,,,0.00,Acu-Link.com,2013-08-12 02:03:00,
2013-08-11 22:19:00,61.3,54.4,30.01,SW,225,1.1,-999.0,78,-99.99,,,0.00,Acu-Link.com,2013-08-12 02:19:00,
2013-08-11 22:34:00,61.2,54.6,30.00,SW,225,3.7,-999.0,79,-99.99,,,0.00,Acu-Link.com,2013-08-12 02:34:00,
2013-08-11 23:04:00,61.3,54.4,30.00,South,180,0.0,-999.0,78,-99.99,,,0.00,Acu-Link.com,2013-08-12 03:04:00,
2013-08-11 23:20:00,60.8,54.9,30.01,SSE,157,2.7,-999.0,81,-99.99,,,0.00,Acu-Link.com,2013-08-12 03:20:00,
2013-08-11 23:35:00,59.4,54.2,30.01,SSW,202,4.7,-999.0,83,-99.99,,,0.00,Acu-Link.com,2013-08-12 03:35:00,
2013-08-11 23:50:00,59.0,54.2,30.01,SSW,202,4.7,-999.0,84,-99.99,,,0.00,Acu-Link.com,2013-08-12 03:50:00,